createdAt,value
2023-05-10T00:00:40.492Z,0.97
2023-05-10T00:03:07.054Z,1.13
2023-05-10T00:05:33.499Z,1.02
2023-05-10T00:07:59.887Z,1.02
2023-05-10T00:10:26.249Z,0.98
2023-05-10T00:12:52.676Z,0.96
2023-05-10T00:15:19.090Z,1.02
2023-05-10T00:17:45.558Z,1.00
2023-05-10T00:20:11.936Z,0.98
2023-05-10T00:22:38.298Z,0.90
2023-05-10T00:25:04.685Z,0.98
2023-05-10T00:27:31.072Z,1.07
2023-05-10T00:29:57.456Z,1.06
2023-05-10T00:32:23.898Z,1.07
2023-05-10T00:34:50.361Z,1.05
2023-05-10T00:37:16.740Z,1.04
2023-05-10T00:39:43.100Z,1.05
2023-05-10T00:42:09.469Z,0.99
2023-05-10T00:44:35.856Z,1.03
2023-05-10T00:47:02.207Z,0.86
2023-05-10T00:49:28.578Z,0.86
2023-05-10T00:51:54.920Z,0.84
2023-05-10T00:54:21.307Z,0.99
2023-05-10T00:56:47.695Z,0.98
2023-05-10T00:59:14.065Z,0.82
2023-05-10T01:01:40.468Z,0.79
2023-05-10T01:04:06.905Z,0.84
2023-05-10T01:06:33.251Z,0.92
2023-05-10T01:08:59.589Z,0.99
2023-05-10T01:11:25.914Z,0.89
2023-05-10T01:13:52.281Z,0.82
2023-05-10T01:16:18.690Z,0.78
2023-05-10T01:18:45.033Z,0.73
2023-05-10T01:21:11.410Z,0.75
2023-05-10T01:23:37.808Z,0.82
2023-05-10T01:26:04.215Z,0.76
2023-05-10T01:28:30.589Z,0.85
2023-05-10T01:30:57.000Z,0.86
2023-05-10T01:33:23.374Z,0.61
2023-05-10T01:35:49.752Z,0.68
2023-05-10T01:38:16.132Z,0.81
2023-05-10T01:40:42.537Z,0.74
2023-05-10T01:43:08.922Z,0.80
2023-05-10T01:45:35.280Z,0.79
2023-05-10T01:48:01.636Z,0.72
2023-05-10T01:50:28.021Z,0.75
2023-05-10T01:52:54.399Z,0.74
2023-05-10T01:55:20.803Z,0.72
2023-05-10T01:57:47.233Z,0.84
2023-05-10T02:00:13.684Z,0.78
2023-05-10T02:02:40.234Z,0.69
2023-05-10T02:05:06.602Z,0.74
2023-05-10T02:07:32.974Z,0.76
2023-05-10T02:10:00.483Z,0.64
2023-05-10T02:12:26.857Z,0.70
2023-05-10T02:14:53.204Z,0.66
2023-05-10T02:17:19.549Z,0.65
2023-05-10T02:19:45.927Z,0.65
2023-05-10T02:22:12.276Z,0.71
2023-05-10T02:24:38.656Z,0.69
2023-05-10T02:27:05.055Z,0.75
2023-05-10T02:29:31.394Z,0.73
2023-05-10T02:31:57.784Z,0.73
2023-05-10T02:34:24.149Z,0.77
2023-05-10T02:36:50.530Z,0.81
2023-05-10T02:39:16.877Z,0.64
2023-05-10T02:41:43.254Z,0.70
2023-05-10T02:44:09.594Z,0.70
2023-05-10T02:46:36.058Z,0.84
2023-05-10T02:49:02.461Z,0.81
2023-05-10T02:51:28.814Z,0.77
2023-05-10T02:53:55.202Z,0.86
2023-05-10T02:56:21.558Z,0.84
2023-05-10T02:58:47.930Z,0.74
2023-05-10T03:01:14.353Z,0.74
2023-05-10T03:03:40.705Z,0.78
2023-05-10T03:06:07.600Z,0.76
2023-05-10T03:08:33.998Z,0.73
2023-05-10T03:11:00.388Z,0.80
2023-05-10T03:13:26.901Z,0.90
2023-05-10T03:15:53.319Z,0.96
2023-05-10T03:18:19.707Z,0.79
2023-05-10T03:20:46.055Z,0.76
2023-05-10T03:23:12.466Z,0.83
2023-05-10T03:25:38.830Z,0.77
2023-05-10T03:28:05.301Z,0.75
2023-05-10T03:30:31.674Z,0.78
2023-05-10T03:32:58.116Z,0.87
2023-05-10T03:35:24.533Z,0.94
2023-05-10T03:37:50.913Z,0.78
2023-05-10T03:40:17.560Z,0.83
2023-05-10T03:42:44.098Z,0.84
2023-05-10T03:45:10.484Z,0.88
2023-05-10T03:47:36.853Z,0.91
2023-05-10T03:50:03.249Z,0.82
2023-05-10T03:52:29.638Z,0.79
2023-05-10T03:54:55.980Z,0.79
2023-05-10T03:57:22.321Z,0.81
2023-05-10T03:59:48.663Z,1.02
2023-05-10T04:02:15.040Z,0.95
2023-05-10T04:04:41.389Z,0.82
2023-05-10T04:07:07.739Z,0.87
2023-05-10T04:09:34.069Z,0.83
2023-05-10T04:12:00.412Z,0.83
2023-05-10T04:14:26.815Z,0.92
2023-05-10T04:16:53.226Z,0.73
2023-05-10T04:19:19.664Z,0.80
2023-05-10T04:21:46.049Z,0.78
2023-05-10T04:24:13.431Z,0.86
2023-05-10T04:26:39.955Z,0.85
2023-05-10T04:29:06.341Z,0.69
2023-05-10T04:31:32.699Z,0.83
2023-05-10T04:33:59.081Z,0.75
2023-05-10T04:36:25.506Z,0.95
2023-05-10T04:38:51.886Z,0.75
2023-05-10T04:41:18.273Z,0.75
2023-05-10T04:43:44.620Z,0.63
2023-05-10T04:46:11.036Z,0.73
2023-05-10T04:48:37.478Z,0.71
2023-05-10T04:51:03.822Z,0.63
2023-05-10T04:53:30.215Z,0.62
2023-05-10T04:55:56.637Z,0.54
2023-05-10T04:58:23.038Z,0.63
2023-05-10T05:00:49.417Z,0.75
2023-05-10T05:03:15.858Z,0.74
2023-05-10T05:05:42.316Z,0.66
2023-05-10T05:08:08.705Z,0.74
2023-05-10T05:10:35.111Z,0.72
2023-05-10T05:13:01.505Z,0.67
2023-05-10T05:15:27.871Z,0.65
2023-05-10T05:17:54.264Z,0.62
2023-05-10T05:20:20.672Z,0.79
2023-05-10T05:22:47.009Z,0.82
2023-05-10T05:25:13.353Z,0.77
2023-05-10T05:27:39.698Z,0.68
2023-05-10T05:30:06.117Z,0.67
2023-05-10T05:32:32.508Z,0.67
2023-05-10T05:34:59.102Z,0.69
2023-05-10T05:37:25.545Z,0.95
2023-05-10T05:39:51.932Z,0.72
2023-05-10T05:42:18.275Z,0.70
2023-05-10T05:44:44.658Z,0.68
2023-05-10T05:47:11.001Z,0.80
2023-05-10T05:49:37.328Z,0.95
2023-05-10T05:52:03.669Z,0.90
2023-05-10T05:54:30.044Z,0.73
2023-05-10T05:56:56.386Z,0.74
2023-05-10T05:59:22.762Z,0.86
2023-05-10T06:01:49.164Z,0.82
2023-05-10T06:04:15.550Z,0.80
2023-05-10T06:06:41.901Z,0.82
2023-05-10T06:09:08.307Z,1.00
2023-05-10T06:11:35.062Z,0.83
2023-05-10T06:14:01.444Z,0.90
2023-05-10T06:16:27.875Z,0.88
2023-05-10T06:18:54.286Z,0.91
2023-05-10T06:21:20.678Z,0.98
2023-05-10T06:23:47.024Z,1.07
2023-05-10T06:26:13.429Z,1.19
2023-05-10T06:28:39.767Z,1.23
2023-05-10T06:31:06.168Z,1.28
2023-05-10T06:33:32.522Z,1.28
2023-05-10T06:35:58.895Z,1.28
2023-05-10T06:38:25.247Z,0.89
2023-05-10T06:40:51.578Z,1.32
2023-05-10T06:43:17.952Z,0.85
2023-05-10T06:45:44.348Z,0.88
2023-05-10T06:48:10.719Z,0.83
2023-05-10T06:50:37.131Z,0.84
2023-05-10T06:53:03.543Z,1.09
2023-05-10T06:55:29.931Z,1.11
2023-05-10T06:57:56.330Z,1.01
2023-05-10T07:00:22.786Z,1.13
2023-05-10T07:02:49.189Z,0.95
2023-05-10T07:05:15.795Z,0.95
2023-05-10T07:07:42.256Z,0.85
2023-05-10T07:10:08.598Z,0.88
2023-05-10T07:12:35.063Z,1.11
2023-05-10T07:15:01.483Z,0.91
2023-05-10T07:17:27.928Z,1.21
2023-05-10T07:19:54.339Z,1.03
2023-05-10T07:22:20.709Z,1.03
2023-05-10T07:24:47.123Z,0.98
2023-05-10T07:27:13.476Z,0.98
2023-05-10T07:29:39.878Z,0.80
2023-05-10T07:32:06.280Z,1.02
2023-05-10T07:34:32.652Z,0.90
2023-05-10T07:36:59.030Z,0.88
2023-05-10T07:39:27.807Z,1.11
2023-05-10T07:41:54.492Z,0.89
2023-05-10T07:44:20.881Z,1.15
2023-05-10T07:46:47.255Z,1.33
2023-05-10T07:49:13.624Z,1.02
2023-05-10T07:51:39.954Z,0.91
2023-05-10T07:54:06.333Z,1.02
2023-05-10T07:56:32.715Z,1.16
2023-05-10T07:58:59.113Z,1.12
2023-05-10T08:01:25.572Z,1.06
2023-05-10T08:03:52.045Z,1.05
2023-05-10T08:06:18.517Z,0.72
2023-05-10T08:08:44.850Z,0.84
2023-05-10T08:11:11.226Z,0.54
2023-05-10T08:13:37.722Z,0.53
2023-05-10T08:16:04.273Z,0.44
2023-05-10T08:18:30.785Z,0.34
2023-05-10T08:20:57.232Z,0.35
2023-05-10T08:23:23.721Z,0.33
2023-05-10T08:25:50.056Z,0.35
2023-05-10T08:28:16.464Z,0.49
2023-05-10T08:30:42.858Z,0.48
2023-05-10T08:33:09.250Z,0.56
2023-05-10T08:35:35.642Z,0.49
2023-05-10T08:38:01.985Z,0.64
2023-05-10T08:40:28.316Z,0.63
2023-05-10T08:42:54.636Z,0.51
2023-05-10T08:45:21.021Z,0.62
2023-05-10T08:47:47.455Z,0.58
2023-05-10T08:50:13.887Z,0.56
2023-05-10T08:52:40.282Z,0.57
2023-05-10T08:55:06.646Z,0.57
2023-05-10T08:57:33.026Z,0.68
2023-05-10T08:59:59.367Z,0.83
2023-05-10T09:02:25.763Z,0.87
2023-05-10T09:04:52.212Z,1.06
2023-05-10T09:07:18.669Z,0.93
2023-05-10T09:09:45.041Z,1.09
2023-05-10T09:12:11.429Z,1.14
2023-05-10T09:14:37.840Z,1.05
2023-05-10T09:17:04.230Z,1.05
2023-05-10T09:19:30.597Z,1.09
2023-05-10T09:21:56.946Z,1.20
2023-05-10T09:24:23.284Z,1.13
2023-05-10T09:26:49.708Z,1.08
2023-05-10T09:29:17.531Z,1.16
2023-05-10T09:31:44.304Z,1.32
2023-05-10T09:34:10.643Z,1.00
2023-05-10T09:36:37.023Z,1.23
2023-05-10T09:39:03.424Z,1.06
2023-05-10T09:41:29.805Z,1.35
2023-05-10T09:43:56.154Z,1.33
2023-05-10T09:46:22.586Z,1.14
2023-05-10T09:48:49.057Z,1.21
2023-05-10T09:51:15.433Z,1.20
2023-05-10T09:53:41.775Z,1.30
2023-05-10T09:56:08.122Z,1.25
2023-05-10T09:58:34.485Z,1.21
2023-05-10T10:01:00.869Z,1.23
2023-05-10T10:03:29.670Z,1.27
2023-05-10T10:05:56.680Z,1.30
2023-05-10T10:08:23.068Z,1.46
2023-05-10T10:10:51.535Z,1.55
2023-05-10T10:13:17.879Z,1.39
2023-05-10T10:15:44.316Z,1.31
2023-05-10T10:18:10.786Z,1.08
2023-05-10T10:20:37.333Z,1.27
2023-05-10T10:23:03.750Z,1.24
2023-05-10T10:25:30.092Z,1.21
2023-05-10T10:27:56.476Z,1.39
2023-05-10T10:30:22.866Z,1.48
2023-05-10T10:32:49.277Z,1.42
2023-05-10T10:35:15.820Z,1.63
2023-05-10T10:37:42.329Z,1.24
2023-05-10T10:40:08.715Z,1.36
2023-05-10T10:42:35.056Z,1.52
2023-05-10T10:45:01.421Z,1.43
2023-05-10T10:47:27.799Z,1.18
2023-05-10T10:49:54.158Z,1.08
2023-05-10T10:52:20.552Z,1.27
2023-05-10T10:54:46.920Z,1.44
2023-05-10T10:57:13.239Z,1.63
2023-05-10T10:59:39.615Z,1.51
2023-05-10T11:02:05.960Z,1.32
2023-05-10T11:04:32.357Z,1.24
2023-05-10T11:06:58.766Z,1.20
2023-05-10T11:09:25.133Z,1.11
2023-05-10T11:11:51.509Z,1.16
2023-05-10T11:14:17.882Z,1.20
2023-05-10T11:16:44.301Z,0.65
2023-05-10T11:19:10.718Z,0.73
2023-05-10T11:21:37.087Z,0.73
2023-05-10T11:24:03.416Z,0.77
2023-05-10T11:26:29.747Z,0.68
2023-05-10T11:28:56.123Z,0.78
2023-05-10T11:31:22.577Z,0.77
2023-05-10T11:33:49.076Z,0.76
2023-05-10T11:36:15.461Z,0.83
2023-05-10T11:38:41.850Z,0.79
2023-05-10T11:41:08.205Z,0.66
2023-05-10T11:43:34.531Z,0.75
2023-05-10T11:46:00.908Z,0.53
2023-05-10T11:48:27.284Z,0.53
2023-05-10T11:50:53.616Z,0.50
2023-05-10T11:53:20.164Z,0.44
2023-05-10T11:55:46.555Z,0.39
2023-05-10T11:58:12.901Z,0.64
2023-05-10T12:00:39.227Z,0.58
2023-05-10T12:03:05.658Z,0.51
2023-05-10T12:05:32.149Z,0.70
2023-05-10T12:07:58.525Z,0.83
2023-05-10T12:10:24.904Z,0.88
2023-05-10T12:12:51.255Z,0.79
2023-05-10T12:15:17.585Z,0.69
2023-05-10T12:17:43.995Z,0.81
2023-05-10T12:20:10.398Z,0.70
2023-05-10T12:22:36.751Z,0.70
2023-05-10T12:25:03.122Z,0.70
2023-05-10T12:27:29.408Z,0.69
2023-05-10T12:29:55.725Z,0.71
2023-05-10T12:32:22.039Z,0.69
2023-05-10T12:34:48.335Z,0.60
2023-05-10T12:37:14.625Z,0.59
2023-05-10T12:39:40.909Z,0.48
2023-05-10T12:42:07.203Z,0.50
2023-05-10T12:44:33.489Z,0.59
2023-05-10T12:46:59.770Z,0.75
2023-05-10T12:49:26.048Z,0.64
2023-05-10T12:51:52.343Z,0.60
2023-05-10T12:54:18.639Z,0.54
2023-05-10T12:56:44.929Z,0.57
2023-05-10T12:59:11.230Z,0.59
2023-05-10T13:01:37.632Z,0.51
2023-05-10T13:04:04.105Z,0.36
2023-05-10T13:06:30.532Z,0.46
2023-05-10T13:08:56.829Z,0.44
2023-05-10T13:11:23.124Z,0.63
2023-05-10T13:13:49.411Z,0.45
2023-05-10T13:16:15.718Z,0.46
2023-05-10T13:18:42.096Z,0.38
2023-05-10T13:21:08.431Z,0.42
2023-05-10T13:23:34.715Z,0.28
2023-05-10T13:26:00.995Z,0.24
2023-05-10T13:28:27.361Z,0.41
2023-05-10T13:30:53.664Z,0.24
2023-05-10T13:33:19.949Z,0.27
2023-05-10T13:35:46.269Z,0.23
2023-05-10T13:38:12.560Z,0.22
2023-05-10T13:40:38.848Z,0.27
2023-05-10T13:43:05.195Z,0.22
2023-05-10T13:45:31.482Z,0.15
2023-05-10T13:47:57.782Z,0.22
2023-05-10T13:50:24.099Z,0.23
2023-05-10T13:52:50.391Z,0.28
2023-05-10T13:55:16.915Z,0.30
2023-05-10T13:57:43.436Z,0.26
2023-05-10T14:00:09.725Z,0.29
2023-05-10T14:02:36.136Z,0.31
2023-05-10T14:05:02.569Z,0.30
2023-05-10T14:07:28.858Z,0.18
2023-05-10T14:09:55.145Z,0.20
2023-05-10T14:12:21.453Z,0.24
2023-05-10T14:14:47.771Z,0.18
2023-05-10T14:17:14.047Z,0.26
2023-05-10T14:19:40.358Z,0.23
2023-05-10T14:22:06.703Z,0.24
2023-05-10T14:24:32.980Z,0.28
2023-05-10T14:26:59.260Z,0.38
2023-05-10T14:29:25.556Z,0.37
2023-05-10T14:31:51.888Z,0.38
2023-05-10T14:34:18.294Z,0.45
2023-05-10T14:36:44.583Z,0.36
2023-05-10T14:39:10.890Z,0.38
2023-05-10T14:41:37.176Z,0.36
2023-05-10T14:44:03.465Z,0.45
2023-05-10T14:46:29.807Z,0.45
2023-05-10T14:48:56.229Z,0.44
2023-05-10T14:51:22.519Z,0.52
2023-05-10T14:53:48.808Z,0.48
2023-05-10T14:56:15.097Z,0.38
2023-05-10T14:58:41.373Z,0.44
2023-05-10T15:01:07.691Z,0.41
2023-05-10T15:03:34.561Z,0.33
2023-05-10T15:06:01.345Z,0.39
2023-05-10T15:08:27.646Z,0.48
2023-05-10T15:10:53.920Z,0.42
2023-05-10T15:13:20.220Z,0.26
2023-05-10T15:15:46.531Z,0.37
2023-05-10T15:18:12.884Z,0.28
2023-05-10T15:20:39.175Z,0.25
2023-05-10T15:23:05.462Z,0.25
2023-05-10T15:25:31.750Z,0.27
2023-05-10T15:27:58.033Z,0.23
2023-05-10T15:30:24.299Z,0.29
2023-05-10T15:32:50.611Z,0.24
2023-05-10T15:35:17.109Z,0.27
2023-05-10T15:37:43.515Z,0.22
2023-05-10T15:40:09.800Z,0.24
2023-05-10T15:42:36.110Z,0.24
2023-05-10T15:45:02.400Z,0.27
2023-05-10T15:47:28.823Z,0.31
2023-05-10T15:49:55.188Z,0.28
2023-05-10T15:52:21.570Z,0.67
2023-05-10T15:54:47.918Z,0.47
2023-05-10T15:57:14.310Z,0.39
2023-05-10T15:59:40.656Z,0.35
2023-05-10T16:02:07.047Z,0.28
2023-05-10T16:04:33.390Z,0.23
2023-05-10T16:06:59.719Z,0.35
2023-05-10T16:09:26.085Z,0.38
2023-05-10T16:11:52.471Z,0.42
2023-05-10T16:14:18.863Z,0.53
2023-05-10T16:16:45.343Z,0.46
2023-05-10T16:19:11.791Z,0.39
2023-05-10T16:21:38.182Z,0.35
2023-05-10T16:24:04.573Z,0.37
2023-05-10T16:26:30.967Z,0.40
2023-05-10T16:28:57.337Z,0.31
2023-05-10T16:31:23.700Z,0.46
2023-05-10T16:33:50.037Z,0.36
2023-05-10T16:36:16.418Z,0.41
2023-05-10T16:38:42.826Z,0.47
2023-05-10T16:41:09.222Z,0.45
2023-05-10T16:43:35.560Z,0.37
2023-05-10T16:46:01.953Z,0.37
2023-05-10T16:48:28.310Z,0.43
2023-05-10T16:50:54.689Z,0.35
2023-05-10T16:53:21.077Z,0.31
2023-05-10T16:55:47.457Z,0.42
2023-05-10T16:58:13.827Z,0.43
2023-05-10T17:00:40.159Z,0.43
2023-05-10T17:03:06.603Z,0.44
2023-05-10T17:05:33.040Z,0.38
2023-05-10T17:07:59.404Z,0.45
2023-05-10T17:10:25.815Z,0.43
2023-05-10T17:12:52.189Z,0.46
2023-05-10T17:15:18.760Z,0.50
2023-05-10T17:17:45.548Z,0.57
2023-05-10T17:20:11.938Z,0.49
2023-05-10T17:22:38.279Z,0.50
2023-05-10T17:25:04.668Z,0.56
2023-05-10T17:27:31.059Z,0.56
2023-05-10T17:29:57.482Z,0.66
2023-05-10T17:32:23.878Z,0.70
2023-05-10T17:34:50.295Z,0.67
2023-05-10T17:37:16.663Z,0.60
2023-05-10T17:39:42.985Z,0.49
2023-05-10T17:42:09.380Z,0.64
2023-05-10T17:44:35.770Z,0.58
2023-05-10T17:47:02.176Z,0.69
2023-05-10T17:49:28.512Z,0.60
2023-05-10T17:51:54.838Z,0.62
2023-05-10T17:54:21.168Z,0.68
2023-05-10T17:56:47.516Z,0.68
2023-05-10T17:59:13.911Z,0.67
2023-05-10T18:01:40.381Z,0.78
2023-05-10T18:04:06.836Z,0.65
2023-05-10T18:06:33.190Z,0.67
2023-05-10T18:08:59.604Z,0.67
2023-05-10T18:11:25.951Z,0.83
2023-05-10T18:13:52.280Z,0.93
2023-05-10T18:16:18.686Z,0.84
2023-05-10T18:18:45.283Z,0.73
2023-05-10T18:21:11.748Z,0.57
2023-05-10T18:23:38.109Z,0.57
2023-05-10T18:26:04.488Z,0.64
2023-05-10T18:28:30.944Z,0.62
2023-05-10T18:30:57.566Z,0.78
2023-05-10T18:33:24.113Z,0.64
2023-05-10T18:35:50.509Z,0.65
2023-05-10T18:38:16.888Z,0.58
2023-05-10T18:40:43.273Z,0.61
2023-05-10T18:43:09.671Z,0.87
2023-05-10T18:45:36.193Z,0.70
2023-05-10T18:48:02.625Z,0.60
2023-05-10T18:50:29.078Z,0.63
2023-05-10T18:52:56.213Z,0.75
2023-05-10T18:55:22.952Z,0.58
2023-05-10T18:57:50.021Z,0.44
2023-05-10T19:00:17.051Z,0.72
2023-05-10T19:02:43.630Z,0.71
2023-05-10T19:05:10.337Z,0.75
2023-05-10T19:07:37.135Z,0.59
2023-05-10T19:10:03.836Z,0.65
2023-05-10T19:12:30.303Z,0.69
2023-05-10T19:14:56.725Z,0.57
2023-05-10T19:17:23.110Z,0.66
2023-05-10T19:19:49.772Z,0.70
2023-05-10T19:22:16.225Z,0.55
2023-05-10T19:24:42.861Z,0.66
2023-05-10T19:27:09.285Z,0.57
2023-05-10T19:29:35.731Z,0.55
2023-05-10T19:32:02.158Z,0.48
2023-05-10T19:34:29.879Z,0.53
2023-05-10T19:36:56.262Z,0.45
2023-05-10T19:39:22.686Z,0.50
2023-05-10T19:41:50.167Z,0.40
2023-05-10T19:44:16.624Z,0.67
2023-05-10T19:46:43.257Z,0.66
2023-05-10T19:49:09.876Z,0.51
2023-05-10T19:51:36.248Z,0.57
2023-05-10T19:54:02.626Z,0.55
2023-05-10T19:56:29.209Z,0.64
2023-05-10T19:58:55.697Z,0.69
2023-05-10T20:01:22.083Z,0.67
2023-05-10T20:03:48.531Z,0.67
2023-05-10T20:06:14.926Z,0.58
2023-05-10T20:08:41.321Z,0.62
2023-05-10T20:11:07.704Z,0.58
2023-05-10T20:13:34.082Z,0.54
2023-05-10T20:16:00.435Z,1.04
2023-05-10T20:18:26.871Z,0.62
2023-05-10T20:20:53.292Z,0.62
2023-05-10T20:23:19.707Z,0.63
2023-05-10T20:25:46.073Z,0.53
2023-05-10T20:28:12.475Z,0.60
2023-05-10T20:30:38.858Z,0.56
2023-05-10T20:33:05.263Z,0.71
2023-05-10T20:35:31.598Z,0.71
2023-05-10T20:37:57.990Z,0.87
2023-05-10T20:40:24.345Z,0.84
2023-05-10T20:42:50.711Z,0.80
2023-05-10T20:45:17.091Z,0.91
2023-05-10T20:47:43.429Z,0.86
2023-05-10T20:50:09.844Z,0.80
2023-05-10T20:52:36.184Z,0.78
2023-05-10T20:55:02.521Z,0.74
2023-05-10T20:57:28.896Z,0.64
2023-05-10T20:59:55.235Z,0.75
2023-05-10T21:02:21.582Z,0.80
2023-05-10T21:04:47.997Z,0.81
2023-05-10T21:07:14.396Z,0.71
2023-05-10T21:09:40.757Z,0.64
2023-05-10T21:12:07.125Z,0.70
2023-05-10T21:14:33.447Z,0.73
2023-05-10T21:16:59.775Z,0.64
2023-05-10T21:19:26.101Z,0.70
2023-05-10T21:21:52.476Z,0.65
2023-05-10T21:24:18.855Z,0.71
2023-05-10T21:26:45.447Z,0.78
2023-05-10T21:29:11.855Z,0.81
2023-05-10T21:31:38.289Z,0.75
2023-05-10T21:34:04.682Z,0.78
2023-05-10T21:36:31.056Z,0.67
2023-05-10T21:38:57.437Z,0.71
2023-05-10T21:41:23.833Z,0.68
2023-05-10T21:43:50.180Z,0.63
2023-05-10T21:46:16.577Z,0.70
2023-05-10T21:48:42.975Z,0.81
2023-05-10T21:51:09.361Z,0.91
2023-05-10T21:53:35.757Z,0.71
2023-05-10T21:56:02.137Z,0.79
2023-05-10T21:58:28.506Z,0.89
2023-05-10T22:00:54.863Z,0.76
2023-05-10T22:03:21.433Z,0.82
2023-05-10T22:05:47.989Z,0.83
2023-05-10T22:08:14.390Z,0.85
2023-05-10T22:10:40.726Z,0.95
2023-05-10T22:13:07.062Z,1.05
2023-05-10T22:15:35.575Z,0.87
2023-05-10T22:18:02.819Z,0.88
2023-05-10T22:20:29.251Z,0.85
2023-05-10T22:22:55.647Z,1.02
2023-05-10T22:25:22.000Z,0.90
2023-05-10T22:27:48.347Z,0.99
2023-05-10T22:30:14.830Z,1.00
2023-05-10T22:32:41.318Z,0.97
2023-05-10T22:35:07.718Z,0.95
2023-05-10T22:37:34.087Z,0.96
2023-05-10T22:40:00.450Z,1.10
2023-05-10T22:42:26.792Z,1.14
2023-05-10T22:44:53.168Z,0.93
2023-05-10T22:47:19.515Z,1.03
2023-05-10T22:49:45.862Z,1.01
2023-05-10T22:52:12.232Z,1.02
2023-05-10T22:54:38.571Z,1.04
2023-05-10T22:57:04.928Z,1.02
2023-05-10T22:59:31.272Z,0.99
2023-05-10T23:01:57.669Z,0.99
2023-05-10T23:04:24.120Z,1.08
2023-05-10T23:06:50.496Z,1.03
2023-05-10T23:09:16.821Z,1.19
2023-05-10T23:11:43.205Z,1.06
2023-05-10T23:14:09.592Z,1.24
2023-05-10T23:16:36.078Z,1.10
2023-05-10T23:19:02.578Z,1.07
2023-05-10T23:21:31.280Z,1.10
2023-05-10T23:23:58.476Z,1.01
2023-05-10T23:26:24.832Z,1.15
2023-05-10T23:28:51.164Z,1.06
2023-05-10T23:31:17.543Z,1.12
2023-05-10T23:33:43.926Z,1.10
2023-05-10T23:36:10.276Z,1.22
2023-05-10T23:38:36.654Z,1.31
2023-05-10T23:41:03.045Z,1.12
2023-05-10T23:43:29.422Z,1.01
2023-05-10T23:45:55.802Z,1.04
2023-05-10T23:48:22.223Z,1.11
2023-05-10T23:50:48.613Z,1.05
2023-05-10T23:53:14.947Z,1.21
2023-05-10T23:55:41.285Z,1.17
2023-05-10T23:58:07.637Z,1.02
